createdAt,value
2018-09-08T00:02:16.275Z,12.93
2018-09-08T00:04:52.313Z,12.56
2018-09-08T00:07:33.833Z,12.43
2018-09-08T00:10:11.312Z,12.18
2018-09-08T00:12:48.766Z,12.34
2018-09-08T00:15:29.760Z,12.10
2018-09-08T00:18:10.546Z,11.99
2018-09-08T00:20:52.098Z,12.05
2018-09-08T00:23:32.972Z,12.05
2018-09-08T00:26:13.797Z,12.02
2018-09-08T00:29:53.846Z,11.57
2018-09-08T00:32:29.730Z,11.14
2018-09-08T00:35:06.343Z,11.20
2018-09-08T00:37:42.168Z,11.47
2018-09-08T00:40:18.398Z,11.58
2018-09-08T00:42:54.185Z,11.30
2018-09-08T00:45:30.054Z,11.31
2018-09-08T00:48:06.599Z,11.36
2018-09-08T00:50:42.483Z,11.57
2018-09-08T00:53:18.236Z,11.24
2018-09-08T00:55:53.929Z,11.50
2018-09-08T00:58:29.666Z,11.77
2018-09-08T01:01:05.650Z,11.43
2018-09-08T01:03:41.500Z,11.68
2018-09-08T01:06:17.364Z,11.78
2018-09-08T01:08:53.249Z,11.81
2018-09-08T01:11:29.371Z,11.95
2018-09-08T01:14:07.045Z,11.98
2018-09-08T01:16:42.858Z,12.02
2018-09-08T01:19:18.725Z,11.94
2018-09-08T01:21:54.642Z,11.58
2018-09-08T01:24:30.485Z,11.20
2018-09-08T01:27:06.239Z,11.23
2018-09-08T01:29:42.571Z,11.21
2018-09-08T01:32:18.407Z,11.46
2018-09-08T01:34:54.269Z,11.60
2018-09-08T01:37:30.241Z,11.74
2018-09-08T01:40:07.593Z,11.94
2018-09-08T01:42:43.379Z,12.01
2018-09-08T01:45:19.068Z,11.95
2018-09-08T01:47:54.844Z,11.87
2018-09-08T01:50:30.753Z,11.55
2018-09-08T01:53:06.629Z,11.38
2018-09-08T01:55:42.351Z,11.30
2018-09-08T01:58:18.869Z,11.31
2018-09-08T02:00:54.638Z,11.00
2018-09-08T02:03:30.386Z,10.91
2018-09-08T02:06:06.251Z,11.13
2018-09-08T02:08:42.987Z,11.13
2018-09-08T02:11:18.684Z,10.88
2018-09-08T02:13:54.535Z,10.59
2018-09-08T02:16:30.351Z,10.77
2018-09-08T02:19:06.366Z,10.54
2018-09-08T02:21:43.021Z,10.37
2018-09-08T02:24:18.742Z,10.46
2018-09-08T02:26:54.410Z,10.86
2018-09-08T02:29:30.506Z,11.00
2018-09-08T02:32:10.503Z,11.07
2018-09-08T02:34:46.471Z,10.88
2018-09-08T02:37:22.235Z,10.98
2018-09-08T02:39:58.390Z,10.92
2018-09-08T02:42:34.161Z,11.01
2018-09-08T02:45:09.986Z,11.03
2018-09-08T02:47:45.903Z,11.27
2018-09-08T02:50:39.302Z,10.91
2018-09-08T02:53:14.577Z,11.10
2018-09-08T02:55:49.053Z,10.53
2018-09-08T02:58:23.241Z,10.25
2018-09-08T03:00:57.711Z,9.99
2018-09-08T03:03:32.786Z,9.91
2018-09-08T03:06:07.057Z,9.52
2018-09-08T03:08:41.196Z,9.74
2018-09-08T03:11:15.552Z,9.55
2018-09-08T03:13:50.043Z,9.70
2018-09-08T03:16:24.464Z,9.59
2018-09-08T03:18:58.777Z,9.51
2018-09-08T03:21:33.173Z,9.28
2018-09-08T03:24:07.508Z,9.45
2018-09-08T03:26:41.887Z,9.78
2018-09-08T03:29:16.189Z,9.93
2018-09-08T03:31:53.479Z,10.24
2018-09-08T03:34:27.791Z,10.49
2018-09-08T03:37:02.212Z,10.46
2018-09-08T03:39:39.164Z,10.38
2018-09-08T03:42:13.981Z,10.56
2018-09-08T03:44:48.269Z,10.68
2018-09-08T03:47:22.618Z,10.93
2018-09-08T03:49:57.024Z,11.01
2018-09-08T03:52:31.278Z,10.56
2018-09-08T03:55:05.504Z,10.30
2018-09-08T03:57:39.888Z,10.46
2018-09-08T04:00:14.269Z,10.00
2018-09-08T04:02:49.918Z,9.94
2018-09-08T04:05:25.819Z,10.10
2018-09-08T04:08:01.711Z,10.19
2018-09-08T04:10:37.473Z,10.46
2018-09-08T04:13:13.418Z,10.66
2018-09-08T04:15:49.293Z,10.29
2018-09-08T04:18:25.010Z,10.16
2018-09-08T04:21:00.778Z,9.67
2018-09-08T04:23:37.149Z,9.70
2018-09-08T04:26:12.929Z,9.73
2018-09-08T04:28:48.867Z,9.78
2018-09-08T04:31:24.534Z,9.68
2018-09-08T04:34:00.394Z,9.74
2018-09-08T04:36:35.958Z,9.84
2018-09-08T04:39:12.309Z,10.39
2018-09-08T04:41:48.103Z,10.83
2018-09-08T04:44:23.788Z,11.23
2018-09-08T04:47:00.253Z,11.53
2018-09-08T04:49:35.939Z,11.76
2018-09-08T04:52:11.503Z,12.21
2018-09-08T04:54:47.234Z,12.23
2018-09-08T04:57:23.102Z,12.52
2018-09-08T04:59:58.962Z,12.51
2018-09-08T05:02:35.747Z,12.62
2018-09-08T05:05:11.865Z,12.88
2018-09-08T05:07:47.840Z,13.51
2018-09-08T05:10:24.367Z,13.96
2018-09-08T05:13:00.220Z,14.00
2018-09-08T05:15:35.829Z,14.39
2018-09-08T05:18:11.789Z,14.44
2018-09-08T05:20:47.472Z,14.19
2018-09-08T05:23:23.230Z,13.94
2018-09-08T05:25:59.789Z,13.76
2018-09-08T05:28:36.520Z,13.66
2018-09-08T05:31:12.555Z,13.74
2018-09-08T05:33:48.670Z,13.61
2018-09-08T05:36:24.583Z,13.79
2018-09-08T05:39:00.672Z,13.74
2018-09-08T05:41:36.515Z,13.91
2018-09-08T05:44:12.773Z,13.58
2018-09-08T05:46:49.052Z,13.24
2018-09-08T05:49:24.928Z,13.33
2018-09-08T05:52:02.553Z,13.75
2018-09-08T05:54:38.267Z,14.43
2018-09-08T05:57:14.979Z,14.98
2018-09-08T05:59:45.979Z,15.24
2018-09-08T06:02:16.887Z,15.79
2018-09-08T06:04:47.789Z,16.07
2018-09-08T06:07:18.709Z,15.95
2018-09-08T06:09:50.469Z,15.80
2018-09-08T06:12:21.901Z,15.71
2018-09-08T06:14:52.872Z,15.73
2018-09-08T06:17:23.744Z,15.73
2018-09-08T06:19:54.723Z,15.74
2018-09-08T06:22:25.828Z,15.74
2018-09-08T06:24:56.791Z,16.00
2018-09-08T06:27:27.677Z,16.08
2018-09-08T06:29:58.744Z,15.82
2018-09-08T06:32:29.793Z,15.86
2018-09-08T06:35:01.164Z,16.30
2018-09-08T06:37:32.969Z,16.83
2018-09-08T06:40:03.949Z,17.35
2018-09-08T06:42:35.351Z,18.02
2018-09-08T06:45:06.299Z,18.06
2018-09-08T06:47:38.092Z,18.21
2018-09-08T06:50:08.931Z,18.20
2018-09-08T06:52:39.753Z,18.37
2018-09-08T06:55:10.573Z,18.40
2018-09-08T06:57:41.587Z,17.78
2018-09-08T07:00:12.678Z,17.55
2018-09-08T07:02:44.739Z,18.12
2018-09-08T07:05:21.991Z,18.29
2018-09-08T07:07:53.317Z,18.44
2018-09-08T07:10:24.122Z,18.11
2018-09-08T07:12:55.257Z,18.29
2018-09-08T07:15:26.165Z,18.96
2018-09-08T07:18:00.356Z,19.49
2018-09-08T07:20:31.167Z,19.56
2018-09-08T07:23:02.064Z,19.76
2018-09-08T07:25:33.132Z,19.82
2018-09-08T07:28:04.251Z,20.04
2018-09-08T07:30:35.054Z,20.23
2018-09-08T07:33:05.953Z,20.51
2018-09-08T07:35:37.960Z,20.43
2018-09-08T07:38:08.902Z,20.55
2018-09-08T07:40:39.727Z,20.47
2018-09-08T07:43:11.188Z,20.32
2018-09-08T07:45:43.263Z,20.58
2018-09-08T07:48:14.705Z,21.02
2018-09-08T07:50:45.468Z,21.22
2018-09-08T07:53:16.827Z,21.24
2018-09-08T07:55:47.736Z,21.52
2018-09-08T07:58:18.663Z,21.57
2018-09-08T08:00:49.554Z,21.39
2018-09-08T08:03:20.574Z,21.20
2018-09-08T08:05:51.379Z,20.73
2018-09-08T08:08:22.293Z,21.02
2018-09-08T08:10:53.051Z,20.91
2018-09-08T08:13:23.822Z,20.80
2018-09-08T08:15:54.765Z,20.94
2018-09-08T08:18:26.276Z,20.78
2018-09-08T08:20:57.264Z,20.44
2018-09-08T08:23:28.145Z,20.39
2018-09-08T08:25:58.897Z,20.70
2018-09-08T08:28:29.766Z,21.26
2018-09-08T08:31:00.820Z,21.15
2018-09-08T08:33:31.793Z,21.46
2018-09-08T08:36:02.706Z,21.64
2018-09-08T08:38:33.679Z,22.04
2018-09-08T08:41:04.699Z,22.38
2018-09-08T08:43:36.097Z,22.24
2018-09-08T08:46:06.938Z,22.45
2018-09-08T08:48:37.747Z,21.81
2018-09-08T08:51:19.281Z,21.68
2018-09-08T08:54:01.004Z,21.61
2018-09-08T08:56:32.202Z,21.92
2018-09-08T08:59:02.991Z,22.09
2018-09-08T09:01:33.937Z,22.06
2018-09-08T09:04:04.792Z,21.84
2018-09-08T09:06:36.022Z,21.79
2018-09-08T09:09:11.665Z,21.98
2018-09-08T09:11:42.787Z,22.22
2018-09-08T09:14:14.650Z,22.47
2018-09-08T09:16:46.446Z,22.68
2018-09-08T09:19:39.282Z,22.80
2018-09-08T09:22:23.174Z,22.31
2018-09-08T09:24:58.332Z,22.62
2018-09-08T09:27:31.108Z,22.89
2018-09-08T09:30:02.515Z,22.96
2018-09-08T09:32:33.673Z,22.54
2018-09-08T09:35:04.638Z,22.17
2018-09-08T09:37:35.395Z,22.46
2018-09-08T09:40:07.866Z,22.67
2018-09-08T09:42:38.623Z,22.77
2018-09-08T09:45:10.090Z,22.85
2018-09-08T09:47:41.744Z,22.68
2018-09-08T09:50:13.298Z,22.72
2018-09-08T09:52:44.103Z,22.64
2018-09-08T09:55:14.928Z,22.19
2018-09-08T09:57:46.699Z,22.37
2018-09-08T10:00:22.765Z,22.57
2018-09-08T10:02:58.511Z,22.59
2018-09-08T10:05:30.093Z,22.63
2018-09-08T10:08:01.289Z,22.69
2018-09-08T10:10:32.195Z,22.73
2018-09-08T10:13:03.553Z,22.71
2018-09-08T10:15:34.615Z,22.57
2018-09-08T10:18:05.367Z,22.41
2018-09-08T10:20:41.084Z,22.31
2018-09-08T10:23:12.134Z,22.40
2018-09-08T10:25:44.493Z,22.82
2018-09-08T10:28:15.388Z,23.23
2018-09-08T10:30:46.525Z,22.86
2018-09-08T10:33:17.327Z,23.23
2018-09-08T10:35:48.099Z,23.05
2018-09-08T10:38:18.930Z,23.25
2018-09-08T10:40:49.859Z,23.42
2018-09-08T10:43:20.687Z,23.39
2018-09-08T10:45:51.581Z,23.71
2018-09-08T10:48:22.370Z,24.06
2018-09-08T10:50:54.664Z,24.43
2018-09-08T10:53:26.050Z,24.85
2018-09-08T10:55:57.933Z,24.49
2018-09-08T10:58:30.384Z,24.45
2018-09-08T11:01:02.074Z,24.89
2018-09-08T11:03:32.839Z,25.01
2018-09-08T11:06:03.646Z,25.10
2018-09-08T11:08:34.545Z,24.67
2018-09-08T11:11:05.382Z,24.40
2018-09-08T11:13:36.109Z,25.01
2018-09-08T11:16:06.895Z,25.14
2018-09-08T11:18:37.833Z,25.63
2018-09-08T11:21:08.732Z,25.45
2018-09-08T11:23:40.229Z,25.42
2018-09-08T11:26:11.064Z,26.08
2018-09-08T11:30:06.761Z,25.70
2018-09-08T11:32:37.558Z,25.64
2018-09-08T11:35:11.307Z,26.23
2018-09-08T11:37:42.783Z,26.63
2018-09-08T11:40:15.096Z,26.87
2018-09-08T11:43:09.971Z,26.73
2018-09-08T11:45:40.818Z,26.68
2018-09-08T11:48:12.418Z,25.90
2018-09-08T11:50:44.295Z,25.72
2018-09-08T11:53:15.927Z,25.63
2018-09-08T11:55:46.999Z,25.36
2018-09-08T11:58:21.825Z,25.82
2018-09-08T12:00:53.108Z,25.63
2018-09-08T12:03:24.214Z,25.96
2018-09-08T12:05:55.122Z,26.70
2018-09-08T12:08:25.988Z,27.38
2018-09-08T12:10:57.660Z,26.50
2018-09-08T12:13:28.502Z,26.57
2018-09-08T12:15:59.601Z,27.37
2018-09-08T12:18:30.468Z,27.80
2018-09-08T12:21:01.545Z,28.13
2018-09-08T12:23:32.495Z,27.94
2018-09-08T12:26:03.304Z,27.52
2018-09-08T12:28:34.190Z,27.77
2018-09-08T12:31:05.087Z,27.70
2018-09-08T12:33:40.188Z,28.32
2018-09-08T12:36:11.306Z,28.10
2018-09-08T12:38:42.607Z,28.74
2018-09-08T12:41:13.626Z,29.22
2018-09-08T12:43:44.548Z,28.95
2018-09-08T12:46:15.730Z,28.75
2018-09-08T12:48:46.708Z,28.06
2018-09-08T12:51:18.097Z,26.89
2018-09-08T12:53:50.945Z,26.09
2018-09-08T12:56:23.670Z,25.84
2018-09-08T12:58:54.589Z,25.92
2018-09-08T13:01:26.940Z,25.58
2018-09-08T13:03:57.870Z,25.46
2018-09-08T13:06:29.343Z,25.61
2018-09-08T13:09:00.104Z,25.50
2018-09-08T13:11:31.457Z,25.03
2018-09-08T13:14:02.227Z,25.09
2018-09-08T13:16:33.955Z,24.99
2018-09-08T13:19:04.841Z,24.45
2018-09-08T13:21:37.585Z,24.69
2018-09-08T13:24:09.778Z,23.49
2018-09-08T13:29:11.433Z,23.11
2018-09-08T13:31:42.649Z,23.19
2018-09-08T13:34:15.030Z,23.00
2018-09-08T13:36:46.721Z,22.90
2018-09-08T13:39:17.499Z,22.80
2018-09-08T13:41:50.051Z,22.76
2018-09-08T13:44:21.419Z,23.00
2018-09-08T13:46:53.207Z,22.90
2018-09-08T13:49:24.192Z,22.72
2018-09-08T13:51:55.051Z,22.79
2018-09-08T13:54:25.974Z,22.65
2018-09-08T13:57:08.955Z,21.02
2018-09-08T13:59:39.958Z,20.39
2018-09-08T14:02:13.193Z,20.14
2018-09-08T14:04:44.422Z,19.37
2018-09-08T14:07:28.744Z,19.18
2018-09-08T14:10:01.485Z,19.35
2018-09-08T14:12:37.029Z,19.12
2018-09-08T14:15:08.134Z,19.02
2018-09-08T14:17:40.134Z,18.90
2018-09-08T14:20:17.463Z,18.89
2018-09-08T14:22:50.938Z,18.93
2018-09-08T14:25:23.100Z,18.94
2018-09-08T14:27:54.499Z,18.93
2018-09-08T14:30:26.690Z,18.94
2018-09-08T14:32:57.532Z,19.16
2018-09-08T14:35:28.321Z,19.71
2018-09-08T14:37:59.157Z,20.28
2018-09-08T14:40:30.269Z,21.64
2018-09-08T14:43:03.855Z,22.98
2018-09-08T14:45:34.683Z,23.93
2018-09-08T14:48:08.964Z,24.69
2018-09-08T14:50:39.728Z,25.36
2018-09-08T14:53:10.526Z,24.63
2018-09-08T14:55:41.281Z,23.07
2018-09-08T14:58:13.031Z,22.82
2018-09-08T15:00:43.848Z,22.31
2018-09-08T15:03:14.787Z,21.85
2018-09-08T15:05:45.960Z,21.30
2018-09-08T15:08:18.259Z,21.25
2018-09-08T15:10:49.090Z,20.94
2018-09-08T15:13:20.463Z,20.63
2018-09-08T15:15:51.645Z,20.73
2018-09-08T15:18:22.477Z,20.45
2018-09-08T15:20:53.287Z,20.13
2018-09-08T15:23:24.958Z,19.93
2018-09-08T15:25:55.805Z,19.81
2018-09-08T15:28:27.022Z,19.76
2018-09-08T15:30:58.191Z,19.54
2018-09-08T15:33:34.691Z,19.34
2018-09-08T15:36:06.805Z,19.18
2018-09-08T15:38:37.874Z,19.19
2018-09-08T15:41:08.951Z,19.12
2018-09-08T15:43:43.287Z,19.10
2018-09-08T15:46:25.019Z,19.00
2018-09-08T15:49:00.470Z,18.90
2018-09-08T15:51:31.944Z,19.05
2018-09-08T15:54:03.833Z,19.07
2018-09-08T15:56:34.752Z,19.06
2018-09-08T15:59:05.676Z,19.05
2018-09-08T16:01:36.451Z,19.01
2018-09-08T16:04:07.348Z,18.98
2018-09-08T16:06:39.358Z,18.84
2018-09-08T16:09:10.182Z,18.87
2018-09-08T16:11:40.990Z,18.82
2018-09-08T16:14:11.913Z,18.75
2018-09-08T16:18:07.299Z,18.73
2018-09-08T16:20:38.233Z,18.45
2018-09-08T16:23:10.109Z,18.45
2018-09-08T16:25:41.457Z,18.15
2018-09-08T16:28:12.338Z,18.13
2018-09-08T16:30:44.977Z,17.81
2018-09-08T16:33:16.043Z,17.70
2018-09-08T16:35:46.957Z,17.59
2018-09-08T16:38:19.124Z,17.74
2018-09-08T16:40:50.559Z,17.57
2018-09-08T16:43:21.413Z,17.60
2018-09-08T16:45:52.696Z,17.54
2018-09-08T16:48:23.472Z,17.58
2018-09-08T16:50:55.490Z,17.59
2018-09-08T16:53:26.470Z,17.43
2018-09-08T16:55:57.336Z,17.21
2018-09-08T16:58:28.217Z,17.04
2018-09-08T17:00:59.209Z,17.15
2018-09-08T17:03:30.476Z,17.08
2018-09-08T17:06:01.302Z,16.92
2018-09-08T17:08:32.102Z,16.84
2018-09-08T17:11:02.909Z,16.80
2018-09-08T17:13:33.937Z,16.78
2018-09-08T17:16:04.755Z,16.86
2018-09-08T17:18:36.057Z,16.83
2018-09-08T17:21:07.273Z,16.71
2018-09-08T17:23:38.106Z,16.64
2018-09-08T17:26:08.937Z,16.48
2018-09-08T17:28:40.100Z,16.43
2018-09-08T17:31:10.928Z,16.48
2018-09-08T17:33:41.699Z,16.56
2018-09-08T17:36:12.651Z,16.40
2018-09-08T17:38:43.460Z,16.33
2018-09-08T17:41:14.376Z,16.37
2018-09-08T17:43:45.161Z,16.30
2018-09-08T17:46:21.833Z,16.18
2018-09-08T17:48:52.616Z,15.88
2018-09-08T17:51:23.516Z,15.62
2018-09-08T17:53:54.368Z,15.34
2018-09-08T17:56:25.321Z,15.16
2018-09-08T17:58:56.785Z,15.14
2018-09-08T18:01:27.878Z,15.30
2018-09-08T18:03:59.434Z,15.23
2018-09-08T18:06:30.269Z,15.20
2018-09-08T18:09:01.501Z,15.24
2018-09-08T18:11:32.499Z,15.33
2018-09-08T18:14:03.368Z,15.52
2018-09-08T18:16:34.290Z,15.55
2018-09-08T18:19:05.397Z,15.52
2018-09-08T18:21:36.217Z,15.47
2018-09-08T18:24:06.496Z,15.48
2018-09-08T18:26:37.332Z,15.44
2018-09-08T18:29:08.490Z,15.45
2018-09-08T18:31:39.413Z,15.55
2018-09-08T18:34:10.201Z,15.53
2018-09-08T18:36:41.092Z,15.52
2018-09-08T18:39:12.941Z,15.43
2018-09-08T18:41:43.992Z,15.43
2018-09-08T18:44:14.763Z,15.36
2018-09-08T18:46:45.781Z,15.38
2018-09-08T18:49:16.547Z,15.39
2018-09-08T18:51:47.796Z,15.34
2018-09-08T18:54:18.546Z,15.28
2018-09-08T18:56:52.520Z,15.16
2018-09-08T18:59:28.590Z,14.92
2018-09-08T19:01:59.409Z,14.84
2018-09-08T19:04:30.924Z,14.75
2018-09-08T19:07:06.644Z,14.64
2018-09-08T19:09:40.565Z,14.66
2018-09-08T19:12:12.983Z,14.74
2018-09-08T19:14:50.409Z,14.77
2018-09-08T19:17:21.407Z,14.80
2018-09-08T19:19:57.010Z,14.77
2018-09-08T19:22:28.175Z,14.81
2018-09-08T19:24:59.519Z,14.76
2018-09-08T19:27:31.150Z,14.71
2018-09-08T19:30:04.235Z,14.72
2018-09-08T19:35:41.652Z,14.58
2018-09-08T19:38:30.661Z,14.64
2018-09-08T19:48:43.785Z,14.31
2018-09-08T20:41:40.126Z,12.44
2018-09-08T20:44:16.204Z,12.20
2018-09-08T20:46:51.967Z,12.33
2018-09-08T20:49:28.556Z,12.58
2018-09-08T20:52:04.265Z,12.41
2018-09-08T20:54:40.131Z,12.35
2018-09-08T20:57:15.996Z,12.68
2018-09-08T20:59:51.920Z,12.80
2018-09-08T21:02:27.829Z,12.83
2018-09-08T21:05:03.743Z,12.64
2018-09-08T21:07:39.729Z,12.42
2018-09-08T21:10:16.457Z,12.56
2018-09-08T21:12:53.014Z,12.63
2018-09-08T21:15:28.976Z,12.90
2018-09-08T21:18:04.613Z,12.94
2018-09-08T21:20:40.343Z,12.88
2018-09-08T21:23:16.470Z,12.98
2018-09-08T21:25:52.192Z,12.90
2018-09-08T21:28:28.074Z,12.94
2018-09-08T21:31:03.954Z,13.02
2018-09-08T21:33:39.769Z,12.96
2018-09-08T21:36:15.483Z,13.01
2018-09-08T21:38:51.220Z,12.73
2018-09-08T21:41:28.313Z,12.65
2018-09-08T21:44:04.389Z,12.20
2018-09-08T21:46:40.242Z,12.42
2018-09-08T21:49:17.307Z,12.59
2018-09-08T21:51:53.232Z,12.24
2018-09-08T21:54:28.165Z,12.10
2018-09-08T21:57:03.013Z,11.96
2018-09-08T22:19:57.793Z,12.04
2018-09-08T22:22:32.500Z,11.79
2018-09-08T22:25:07.368Z,11.61
2018-09-08T22:27:42.303Z,11.54
2018-09-08T22:30:17.501Z,11.45
2018-09-08T22:32:52.341Z,11.29
2018-09-08T22:35:27.477Z,11.28
2018-09-08T22:38:02.186Z,11.23
2018-09-08T22:40:36.930Z,11.21
2018-09-08T22:43:11.737Z,11.29
2018-09-08T22:45:47.206Z,11.27
2018-09-08T22:48:21.859Z,11.19
2018-09-08T22:50:56.619Z,10.70
2018-09-08T22:53:31.304Z,10.79
2018-09-08T22:56:06.380Z,10.94
2018-09-08T22:58:41.237Z,11.28
2018-09-08T23:01:15.962Z,11.21
2018-09-08T23:03:50.694Z,11.20
2018-09-08T23:06:25.472Z,11.25
2018-09-08T23:09:00.394Z,11.10
2018-09-08T23:11:35.166Z,11.33
2018-09-08T23:14:09.874Z,11.62
2018-09-08T23:16:44.701Z,11.61
2018-09-08T23:19:19.449Z,11.47
2018-09-08T23:21:54.222Z,11.25
2018-09-08T23:24:28.942Z,11.16
2018-09-08T23:27:03.770Z,11.12
2018-09-08T23:29:38.758Z,11.31
2018-09-08T23:32:13.600Z,11.40
2018-09-08T23:34:48.378Z,11.42
2018-09-08T23:37:23.114Z,11.45
2018-09-08T23:39:57.912Z,11.49
2018-09-08T23:42:33.085Z,11.46
2018-09-08T23:45:07.865Z,11.47
2018-09-08T23:47:42.761Z,11.50
2018-09-08T23:50:17.601Z,11.58
2018-09-08T23:52:52.726Z,11.58
2018-09-08T23:55:27.618Z,11.12
2018-09-08T23:58:02.354Z,10.81
